sensor_id;sensor_type;location;lat;lon;timestamp;temperature;humidity
22562;DHT22;11447;50.562;8.504;2022-09-21T00:00:30;9.90;99.90
22562;DHT22;11447;50.562;8.504;2022-09-21T00:02:57;9.90;99.90
22562;DHT22;11447;50.562;8.504;2022-09-21T00:05:24;9.90;99.90
22562;DHT22;11447;50.562;8.504;2022-09-21T00:07:53;9.90;99.90
22562;DHT22;11447;50.562;8.504;2022-09-21T00:10:19;9.90;99.90
22562;DHT22;11447;50.562;8.504;2022-09-21T00:12:47;9.90;99.90
22562;DHT22;11447;50.562;8.504;2022-09-21T00:15:14;9.80;99.90
22562;DHT22;11447;50.562;8.504;2022-09-21T00:17:43;9.80;99.90
22562;DHT22;11447;50.562;8.504;2022-09-21T00:20:13;9.70;99.90
22562;DHT22;11447;50.562;8.504;2022-09-21T00:22:39;9.70;99.90
22562;DHT22;11447;50.562;8.504;2022-09-21T00:25:07;9.70;99.90
22562;DHT22;11447;50.562;8.504;2022-09-21T00:27:34;9.70;99.90
22562;DHT22;11447;50.562;8.504;2022-09-21T00:30:01;9.60;99.90
22562;DHT22;11447;50.562;8.504;2022-09-21T00:32:29;9.70;99.90
22562;DHT22;11447;50.562;8.504;2022-09-21T00:34:59;9.70;99.90
22562;DHT22;11447;50.562;8.504;2022-09-21T00:37:26;9.60;99.90
22562;DHT22;11447;50.562;8.504;2022-09-21T00:39:53;9.60;99.90
22562;DHT22;11447;50.562;8.504;2022-09-21T00:44:49;9.60;99.90
22562;DHT22;11447;50.562;8.504;2022-09-21T00:47:16;9.60;99.90
22562;DHT22;11447;50.562;8.504;2022-09-21T00:49:47;9.60;99.90
22562;DHT22;11447;50.562;8.504;2022-09-21T00:52:15;9.60;99.90
22562;DHT22;11447;50.562;8.504;2022-09-21T00:54:44;9.60;99.90
22562;DHT22;11447;50.562;8.504;2022-09-21T00:57:12;9.60;99.90
22562;DHT22;11447;50.562;8.504;2022-09-21T00:59:39;9.60;99.90
22562;DHT22;11447;50.562;8.504;2022-09-21T01:02:09;9.50;99.90
22562;DHT22;11447;50.562;8.504;2022-09-21T01:04:39;9.50;99.90
22562;DHT22;11447;50.562;8.504;2022-09-21T01:07:07;9.50;99.90
22562;DHT22;11447;50.562;8.504;2022-09-21T01:09:38;9.40;99.90
22562;DHT22;11447;50.562;8.504;2022-09-21T01:15:01;9.40;99.90
22562;DHT22;11447;50.562;8.504;2022-09-21T01:17:50;9.30;99.90
22562;DHT22;11447;50.562;8.504;2022-09-21T01:20:27;9.30;99.90
22562;DHT22;11447;50.562;8.504;2022-09-21T01:23:06;9.30;99.90
22562;DHT22;11447;50.562;8.504;2022-09-21T01:25:44;9.30;99.90
22562;DHT22;11447;50.562;8.504;2022-09-21T01:28:23;9.20;99.90
22562;DHT22;11447;50.562;8.504;2022-09-21T01:30:54;9.20;99.90
22562;DHT22;11447;50.562;8.504;2022-09-21T01:33:27;9.20;99.90
22562;DHT22;11447;50.562;8.504;2022-09-21T01:35:56;9.20;99.90
22562;DHT22;11447;50.562;8.504;2022-09-21T01:38:26;9.30;99.90
22562;DHT22;11447;50.562;8.504;2022-09-21T01:40:57;9.20;99.90
22562;DHT22;11447;50.562;8.504;2022-09-21T01:43:30;9.20;99.90
22562;DHT22;11447;50.562;8.504;2022-09-21T01:45:58;9.10;99.90
22562;DHT22;11447;50.562;8.504;2022-09-21T01:48:33;9.10;99.90
22562;DHT22;11447;50.562;8.504;2022-09-21T01:51:01;9.00;99.90
22562;DHT22;11447;50.562;8.504;2022-09-21T01:53:45;9.00;99.90
22562;DHT22;11447;50.562;8.504;2022-09-21T01:56:14;9.00;99.90
22562;DHT22;11447;50.562;8.504;2022-09-21T01:58:51;8.90;99.90
22562;DHT22;11447;50.562;8.504;2022-09-21T02:01:20;9.00;99.90
22562;DHT22;11447;50.562;8.504;2022-09-21T02:03:49;8.90;99.90
22562;DHT22;11447;50.562;8.504;2022-09-21T02:06:17;8.90;99.90
22562;DHT22;11447;50.562;8.504;2022-09-21T02:08:44;8.90;99.90
22562;DHT22;11447;50.562;8.504;2022-09-21T02:11:11;8.90;99.90
22562;DHT22;11447;50.562;8.504;2022-09-21T02:13:39;8.90;99.90
22562;DHT22;11447;50.562;8.504;2022-09-21T02:21:07;8.90;99.90
22562;DHT22;11447;50.562;8.504;2022-09-21T02:23:40;8.90;99.90
22562;DHT22;11447;50.562;8.504;2022-09-21T02:26:11;8.80;99.90
22562;DHT22;11447;50.562;8.504;2022-09-21T02:31:16;8.80;99.90
22562;DHT22;11447;50.562;8.504;2022-09-21T02:33:47;8.80;99.90
22562;DHT22;11447;50.562;8.504;2022-09-21T02:36:24;8.80;99.90
22562;DHT22;11447;50.562;8.504;2022-09-21T02:39:03;8.80;99.90
22562;DHT22;11447;50.562;8.504;2022-09-21T02:44:18;8.80;99.90
22562;DHT22;11447;50.562;8.504;2022-09-21T02:46:49;8.80;99.90
22562;DHT22;11447;50.562;8.504;2022-09-21T02:49:20;8.80;99.90
22562;DHT22;11447;50.562;8.504;2022-09-21T02:51:49;8.80;99.90
22562;DHT22;11447;50.562;8.504;2022-09-21T02:54:18;8.70;99.90
22562;DHT22;11447;50.562;8.504;2022-09-21T02:56:45;8.70;99.90
22562;DHT22;11447;50.562;8.504;2022-09-21T02:59:13;8.70;99.90
22562;DHT22;11447;50.562;8.504;2022-09-21T03:01:42;8.60;99.90
22562;DHT22;11447;50.562;8.504;2022-09-21T03:04:09;8.70;99.90
22562;DHT22;11447;50.562;8.504;2022-09-21T03:06:36;8.70;99.90
22562;DHT22;11447;50.562;8.504;2022-09-21T03:09:03;8.60;99.90
22562;DHT22;11447;50.562;8.504;2022-09-21T03:11:31;8.60;99.90
22562;DHT22;11447;50.562;8.504;2022-09-21T03:14:01;8.60;99.90
22562;DHT22;11447;50.562;8.504;2022-09-21T03:16:30;8.60;99.90
22562;DHT22;11447;50.562;8.504;2022-09-21T03:18:57;8.50;99.90
22562;DHT22;11447;50.562;8.504;2022-09-21T03:21:26;8.50;99.90
22562;DHT22;11447;50.562;8.504;2022-09-21T03:23:52;8.50;99.90
22562;DHT22;11447;50.562;8.504;2022-09-21T03:26:22;8.50;99.90
22562;DHT22;11447;50.562;8.504;2022-09-21T03:28:48;8.50;99.90
22562;DHT22;11447;50.562;8.504;2022-09-21T03:31:15;8.40;99.90
22562;DHT22;11447;50.562;8.504;2022-09-21T03:33:43;8.40;99.90
22562;DHT22;11447;50.562;8.504;2022-09-21T03:36:10;8.40;99.90
22562;DHT22;11447;50.562;8.504;2022-09-21T03:38:37;8.40;99.90
22562;DHT22;11447;50.562;8.504;2022-09-21T03:41:04;8.40;99.90
22562;DHT22;11447;50.562;8.504;2022-09-21T03:43:33;8.40;99.90
22562;DHT22;11447;50.562;8.504;2022-09-21T03:46:00;8.40;99.90
22562;DHT22;11447;50.562;8.504;2022-09-21T03:48:26;8.40;99.90
22562;DHT22;11447;50.562;8.504;2022-09-21T03:50:53;8.40;99.90
22562;DHT22;11447;50.562;8.504;2022-09-21T03:53:22;8.40;99.90
22562;DHT22;11447;50.562;8.504;2022-09-21T03:55:51;8.40;99.90
22562;DHT22;11447;50.562;8.504;2022-09-21T03:58:17;8.30;99.90
22562;DHT22;11447;50.562;8.504;2022-09-21T04:00:49;8.30;99.90
22562;DHT22;11447;50.562;8.504;2022-09-21T04:03:16;8.30;99.90
22562;DHT22;11447;50.562;8.504;2022-09-21T04:05:42;8.30;99.90
22562;DHT22;11447;50.562;8.504;2022-09-21T04:08:11;8.30;99.90
22562;DHT22;11447;50.562;8.504;2022-09-21T04:10:40;8.30;99.90
22562;DHT22;11447;50.562;8.504;2022-09-21T04:13:08;8.20;99.90
22562;DHT22;11447;50.562;8.504;2022-09-21T04:15:37;8.20;99.90
22562;DHT22;11447;50.562;8.504;2022-09-21T04:18:04;8.20;99.90
22562;DHT22;11447;50.562;8.504;2022-09-21T04:20:33;8.20;99.90
22562;DHT22;11447;50.562;8.504;2022-09-21T04:23:00;8.20;99.90
22562;DHT22;11447;50.562;8.504;2022-09-21T04:25:29;8.10;99.90
22562;DHT22;11447;50.562;8.504;2022-09-21T04:27:55;8.10;99.90
22562;DHT22;11447;50.562;8.504;2022-09-21T04:30:24;8.10;99.90
22562;DHT22;11447;50.562;8.504;2022-09-21T04:32:51;8.10;99.90
22562;DHT22;11447;50.562;8.504;2022-09-21T04:35:20;8.10;99.90
22562;DHT22;11447;50.562;8.504;2022-09-21T04:37:46;8.10;99.90
22562;DHT22;11447;50.562;8.504;2022-09-21T04:40:13;8.10;99.90
22562;DHT22;11447;50.562;8.504;2022-09-21T04:42:42;8.10;99.90
22562;DHT22;11447;50.562;8.504;2022-09-21T04:45:09;8.10;99.90
22562;DHT22;11447;50.562;8.504;2022-09-21T04:47:35;8.00;99.90
22562;DHT22;11447;50.562;8.504;2022-09-21T04:50:02;8.00;99.90
22562;DHT22;11447;50.562;8.504;2022-09-21T04:52:29;8.00;99.90
22562;DHT22;11447;50.562;8.504;2022-09-21T04:54:55;8.00;99.90
22562;DHT22;11447;50.562;8.504;2022-09-21T04:57:22;8.00;99.90
22562;DHT22;11447;50.562;8.504;2022-09-21T04:59:48;7.90;99.90
22562;DHT22;11447;50.562;8.504;2022-09-21T05:02:15;7.90;99.90
22562;DHT22;11447;50.562;8.504;2022-09-21T05:04:44;7.90;99.90
22562;DHT22;11447;50.562;8.504;2022-09-21T05:07:16;7.90;99.90
22562;DHT22;11447;50.562;8.504;2022-09-21T05:09:43;7.90;99.90
22562;DHT22;11447;50.562;8.504;2022-09-21T05:12:31;7.80;99.90
22562;DHT22;11447;50.562;8.504;2022-09-21T05:14:58;7.80;99.90
22562;DHT22;11447;50.562;8.504;2022-09-21T05:17:25;7.60;99.90
22562;DHT22;11447;50.562;8.504;2022-09-21T05:19:51;7.60;99.90
22562;DHT22;11447;50.562;8.504;2022-09-21T05:22:21;7.60;99.90
22562;DHT22;11447;50.562;8.504;2022-09-21T05:24:48;7.60;99.90
22562;DHT22;11447;50.562;8.504;2022-09-21T05:27:14;7.60;99.90
22562;DHT22;11447;50.562;8.504;2022-09-21T05:29:43;7.50;99.90
22562;DHT22;11447;50.562;8.504;2022-09-21T05:32:16;7.50;99.90
22562;DHT22;11447;50.562;8.504;2022-09-21T05:35:30;7.50;99.90
22562;DHT22;11447;50.562;8.504;2022-09-21T05:40:07;7.50;99.90
22562;DHT22;11447;50.562;8.504;2022-09-21T05:42:35;7.50;99.90
22562;DHT22;11447;50.562;8.504;2022-09-21T05:45:02;7.50;99.90
22562;DHT22;11447;50.562;8.504;2022-09-21T05:47:38;7.50;99.90
22562;DHT22;11447;50.562;8.504;2022-09-21T05:58:27;7.50;99.90
22562;DHT22;11447;50.562;8.504;2022-09-21T06:03:27;7.50;99.90
22562;DHT22;11447;50.562;8.504;2022-09-21T06:05:55;7.60;99.90
22562;DHT22;11447;50.562;8.504;2022-09-21T06:08:22;7.60;99.90
22562;DHT22;11447;50.562;8.504;2022-09-21T06:10:51;7.50;99.90
22562;DHT22;11447;50.562;8.504;2022-09-21T06:13:17;7.60;99.90
22562;DHT22;11447;50.562;8.504;2022-09-21T06:15:46;7.60;99.90
22562;DHT22;11447;50.562;8.504;2022-09-21T06:18:15;7.60;99.90
22562;DHT22;11447;50.562;8.504;2022-09-21T06:20:44;7.60;99.90
22562;DHT22;11447;50.562;8.504;2022-09-21T06:23:11;7.70;99.90
22562;DHT22;11447;50.562;8.504;2022-09-21T06:25:37;7.60;99.90
22562;DHT22;11447;50.562;8.504;2022-09-21T06:28:05;7.70;99.90
22562;DHT22;11447;50.562;8.504;2022-09-21T06:30:35;7.70;99.90
22562;DHT22;11447;50.562;8.504;2022-09-21T06:33:02;7.70;99.90
22562;DHT22;11447;50.562;8.504;2022-09-21T06:35:30;7.70;99.90
22562;DHT22;11447;50.562;8.504;2022-09-21T06:38:02;7.70;99.90
22562;DHT22;11447;50.562;8.504;2022-09-21T06:40:29;7.70;99.90
22562;DHT22;11447;50.562;8.504;2022-09-21T06:42:57;7.70;99.90
22562;DHT22;11447;50.562;8.504;2022-09-21T06:45:24;7.60;99.90
22562;DHT22;11447;50.562;8.504;2022-09-21T06:47:51;7.60;99.90
22562;DHT22;11447;50.562;8.504;2022-09-21T06:50:18;7.70;99.90
22562;DHT22;11447;50.562;8.504;2022-09-21T06:52:45;7.70;99.90
22562;DHT22;11447;50.562;8.504;2022-09-21T06:55:11;7.70;99.90
22562;DHT22;11447;50.562;8.504;2022-09-21T06:57:41;7.80;99.90
22562;DHT22;11447;50.562;8.504;2022-09-21T07:00:10;7.80;99.90
22562;DHT22;11447;50.562;8.504;2022-09-21T07:02:41;7.80;99.90
22562;DHT22;11447;50.562;8.504;2022-09-21T07:05:09;7.80;99.90
22562;DHT22;11447;50.562;8.504;2022-09-21T07:07:36;7.90;99.90
22562;DHT22;11447;50.562;8.504;2022-09-21T07:10:03;7.90;99.90
22562;DHT22;11447;50.562;8.504;2022-09-21T07:12:40;7.90;99.90
22562;DHT22;11447;50.562;8.504;2022-09-21T07:15:07;8.00;99.90
22562;DHT22;11447;50.562;8.504;2022-09-21T07:17:35;8.00;99.90
22562;DHT22;11447;50.562;8.504;2022-09-21T07:20:02;8.10;99.90
22562;DHT22;11447;50.562;8.504;2022-09-21T07:22:32;8.10;99.90
22562;DHT22;11447;50.562;8.504;2022-09-21T07:25:03;8.20;99.90
22562;DHT22;11447;50.562;8.504;2022-09-21T07:27:33;8.20;99.90
22562;DHT22;11447;50.562;8.504;2022-09-21T07:29:59;8.30;99.90
22562;DHT22;11447;50.562;8.504;2022-09-21T07:32:26;8.30;99.90
22562;DHT22;11447;50.562;8.504;2022-09-21T07:34:54;8.40;99.90
22562;DHT22;11447;50.562;8.504;2022-09-21T07:37:23;8.40;99.90
22562;DHT22;11447;50.562;8.504;2022-09-21T07:39:50;8.40;99.90
22562;DHT22;11447;50.562;8.504;2022-09-21T07:42:17;8.50;99.90
22562;DHT22;11447;50.562;8.504;2022-09-21T07:44:45;8.60;99.90
22562;DHT22;11447;50.562;8.504;2022-09-21T07:47:15;8.70;99.90
22562;DHT22;11447;50.562;8.504;2022-09-21T07:49:42;8.70;99.90
22562;DHT22;11447;50.562;8.504;2022-09-21T07:52:09;8.70;99.90
22562;DHT22;11447;50.562;8.504;2022-09-21T07:54:36;8.90;99.90
22562;DHT22;11447;50.562;8.504;2022-09-21T07:57:03;9.00;99.90
22562;DHT22;11447;50.562;8.504;2022-09-21T07:59:48;9.10;99.90
22562;DHT22;11447;50.562;8.504;2022-09-21T08:02:15;9.30;99.90
22562;DHT22;11447;50.562;8.504;2022-09-21T08:04:41;9.50;99.90
22562;DHT22;11447;50.562;8.504;2022-09-21T08:07:08;9.70;99.90
22562;DHT22;11447;50.562;8.504;2022-09-21T08:09:37;10.60;99.90
22562;DHT22;11447;50.562;8.504;2022-09-21T08:12:04;11.40;99.90
22562;DHT22;11447;50.562;8.504;2022-09-21T08:14:31;11.50;99.90
22562;DHT22;11447;50.562;8.504;2022-09-21T08:16:58;11.20;99.90
22562;DHT22;11447;50.562;8.504;2022-09-21T08:19:24;11.10;99.90
22562;DHT22;11447;50.562;8.504;2022-09-21T08:21:52;11.00;99.90
22562;DHT22;11447;50.562;8.504;2022-09-21T08:24:23;10.90;99.90
22562;DHT22;11447;50.562;8.504;2022-09-21T08:26:51;10.90;99.90
22562;DHT22;11447;50.562;8.504;2022-09-21T08:29:20;10.90;99.90
22562;DHT22;11447;50.562;8.504;2022-09-21T08:31:50;11.00;99.90
22562;DHT22;11447;50.562;8.504;2022-09-21T08:34:18;11.10;99.90
22562;DHT22;11447;50.562;8.504;2022-09-21T08:36:45;11.20;99.90
22562;DHT22;11447;50.562;8.504;2022-09-21T08:39:11;11.30;99.90
22562;DHT22;11447;50.562;8.504;2022-09-21T08:41:45;11.50;99.90
22562;DHT22;11447;50.562;8.504;2022-09-21T08:44:18;11.60;99.90
22562;DHT22;11447;50.562;8.504;2022-09-21T08:46:52;11.70;99.90
22562;DHT22;11447;50.562;8.504;2022-09-21T08:49:21;11.90;99.90
22562;DHT22;11447;50.562;8.504;2022-09-21T08:51:56;12.00;99.90
22562;DHT22;11447;50.562;8.504;2022-09-21T08:57:10;12.30;99.90
22562;DHT22;11447;50.562;8.504;2022-09-21T08:59:42;12.40;99.90
22562;DHT22;11447;50.562;8.504;2022-09-21T09:10:13;12.60;99.90
22562;DHT22;11447;50.562;8.504;2022-09-21T09:15:25;12.80;99.90
22562;DHT22;11447;50.562;8.504;2022-09-21T09:20:33;12.70;99.90
22562;DHT22;11447;50.562;8.504;2022-09-21T09:23:05;12.80;99.90
22562;DHT22;11447;50.562;8.504;2022-09-21T09:25:37;12.90;99.90
22562;DHT22;11447;50.562;8.504;2022-09-21T09:28:09;12.90;99.90
22562;DHT22;11447;50.562;8.504;2022-09-21T09:30:42;13.10;99.90
22562;DHT22;11447;50.562;8.504;2022-09-21T09:35:47;13.30;99.90
22562;DHT22;11447;50.562;8.504;2022-09-21T09:46:05;13.90;99.90
22562;DHT22;11447;50.562;8.504;2022-09-21T09:48:49;14.00;99.90
22562;DHT22;11447;50.562;8.504;2022-09-21T09:51:20;14.00;99.90
22562;DHT22;11447;50.562;8.504;2022-09-21T09:53:47;14.00;99.90
22562;DHT22;11447;50.562;8.504;2022-09-21T09:56:14;14.10;99.90
22562;DHT22;11447;50.562;8.504;2022-09-21T09:58:48;14.10;99.90
22562;DHT22;11447;50.562;8.504;2022-09-21T10:04:05;14.10;99.90
22562;DHT22;11447;50.562;8.504;2022-09-21T10:06:34;14.20;99.90
22562;DHT22;11447;50.562;8.504;2022-09-21T10:09:00;14.30;99.90
22562;DHT22;11447;50.562;8.504;2022-09-21T10:11:42;14.30;99.90
22562;DHT22;11447;50.562;8.504;2022-09-21T10:14:11;14.50;99.90
22562;DHT22;11447;50.562;8.504;2022-09-21T10:16:40;14.60;99.90
22562;DHT22;11447;50.562;8.504;2022-09-21T10:19:13;14.70;99.90
22562;DHT22;11447;50.562;8.504;2022-09-21T10:21:40;14.80;99.90
22562;DHT22;11447;50.562;8.504;2022-09-21T10:26:49;15.00;99.90
22562;DHT22;11447;50.562;8.504;2022-09-21T10:31:54;15.10;99.90
22562;DHT22;11447;50.562;8.504;2022-09-21T10:34:23;15.20;99.90
22562;DHT22;11447;50.562;8.504;2022-09-21T10:36:50;15.20;99.90
22562;DHT22;11447;50.562;8.504;2022-09-21T10:39:25;15.30;99.90
22562;DHT22;11447;50.562;8.504;2022-09-21T10:44:19;15.30;99.90
22562;DHT22;11447;50.562;8.504;2022-09-21T10:46:48;15.40;99.90
22562;DHT22;11447;50.562;8.504;2022-09-21T10:49:23;15.60;99.90
22562;DHT22;11447;50.562;8.504;2022-09-21T10:51:50;15.60;99.90
22562;DHT22;11447;50.562;8.504;2022-09-21T10:54:22;15.60;99.90
22562;DHT22;11447;50.562;8.504;2022-09-21T10:56:51;15.50;99.90
22562;DHT22;11447;50.562;8.504;2022-09-21T11:01:45;15.70;99.90
22562;DHT22;11447;50.562;8.504;2022-09-21T11:04:33;15.70;99.90
22562;DHT22;11447;50.562;8.504;2022-09-21T11:09:45;15.90;99.90
22562;DHT22;11447;50.562;8.504;2022-09-21T11:12:38;16.00;99.90
22562;DHT22;11447;50.562;8.504;2022-09-21T11:17:53;16.00;99.90
22562;DHT22;11447;50.562;8.504;2022-09-21T11:27:53;16.30;99.70
22562;DHT22;11447;50.562;8.504;2022-09-21T11:30:22;16.40;98.70
22562;DHT22;11447;50.562;8.504;2022-09-21T11:35:34;16.60;96.90
22562;DHT22;11447;50.562;8.504;2022-09-21T11:43:42;16.60;95.40
22562;DHT22;11447;50.562;8.504;2022-09-21T11:46:25;16.70;95.60
22562;DHT22;11447;50.562;8.504;2022-09-21T11:51:44;16.80;94.10
22562;DHT22;11447;50.562;8.504;2022-09-21T12:01:47;16.80;93.40
22562;DHT22;11447;50.562;8.504;2022-09-21T12:04:33;16.80;93.00
22562;DHT22;11447;50.562;8.504;2022-09-21T12:07:05;16.80;91.80
22562;DHT22;11447;50.562;8.504;2022-09-21T12:20:11;17.10;91.20
22562;DHT22;11447;50.562;8.504;2022-09-21T12:22:42;17.10;91.40
22562;DHT22;11447;50.562;8.504;2022-09-21T12:25:17;17.20;90.90
22562;DHT22;11447;50.562;8.504;2022-09-21T12:27:47;17.00;90.60
22562;DHT22;11447;50.562;8.504;2022-09-21T12:30:17;17.00;90.80
22562;DHT22;11447;50.562;8.504;2022-09-21T12:35:23;17.30;92.10
22562;DHT22;11447;50.562;8.504;2022-09-21T12:37:59;17.40;90.80
22562;DHT22;11447;50.562;8.504;2022-09-21T12:45:47;17.50;91.00
22562;DHT22;11447;50.562;8.504;2022-09-21T12:50:46;17.60;89.40
22562;DHT22;11447;50.562;8.504;2022-09-21T12:53:15;17.60;88.00
22562;DHT22;11447;50.562;8.504;2022-09-21T13:00:50;17.40;88.40
22562;DHT22;11447;50.562;8.504;2022-09-21T13:03:33;17.30;88.20
22562;DHT22;11447;50.562;8.504;2022-09-21T13:08:42;17.30;85.70
22562;DHT22;11447;50.562;8.504;2022-09-21T13:11:10;17.40;87.40
22562;DHT22;11447;50.562;8.504;2022-09-21T13:13:50;17.50;84.10
22562;DHT22;11447;50.562;8.504;2022-09-21T13:16:37;17.60;81.00
22562;DHT22;11447;50.562;8.504;2022-09-21T13:19:20;17.60;81.70
22562;DHT22;11447;50.562;8.504;2022-09-21T13:22:08;17.60;80.10
22562;DHT22;11447;50.562;8.504;2022-09-21T13:24:38;17.70;76.40
22562;DHT22;11447;50.562;8.504;2022-09-21T13:27:05;17.70;79.50
22562;DHT22;11447;50.562;8.504;2022-09-21T13:29:34;17.70;75.30
22562;DHT22;11447;50.562;8.504;2022-09-21T13:32:02;17.70;77.30
22562;DHT22;11447;50.562;8.504;2022-09-21T13:34:33;17.70;78.00
22562;DHT22;11447;50.562;8.504;2022-09-21T13:39:41;17.70;73.90
22562;DHT22;11447;50.562;8.504;2022-09-21T13:44:53;17.70;73.50
22562;DHT22;11447;50.562;8.504;2022-09-21T13:47:29;17.70;73.60
22562;DHT22;11447;50.562;8.504;2022-09-21T13:50:00;17.80;72.30
22562;DHT22;11447;50.562;8.504;2022-09-21T13:52:32;17.70;69.80
22562;DHT22;11447;50.562;8.504;2022-09-21T13:55:02;17.70;73.30
22562;DHT22;11447;50.562;8.504;2022-09-21T14:00:30;17.80;73.00
22562;DHT22;11447;50.562;8.504;2022-09-21T14:02:58;17.80;70.30
22562;DHT22;11447;50.562;8.504;2022-09-21T14:05:40;17.90;70.50
22562;DHT22;11447;50.562;8.504;2022-09-21T14:18:47;17.90;73.10
22562;DHT22;11447;50.562;8.504;2022-09-21T14:21:17;17.90;73.60
22562;DHT22;11447;50.562;8.504;2022-09-21T14:26:33;17.90;71.30
22562;DHT22;11447;50.562;8.504;2022-09-21T14:29:07;17.90;71.30
22562;DHT22;11447;50.562;8.504;2022-09-21T14:31:37;17.90;70.20
22562;DHT22;11447;50.562;8.504;2022-09-21T14:34:05;17.90;71.00
22562;DHT22;11447;50.562;8.504;2022-09-21T14:36:38;17.90;70.10
22562;DHT22;11447;50.562;8.504;2022-09-21T14:39:18;17.90;70.10
22562;DHT22;11447;50.562;8.504;2022-09-21T14:41:47;17.90;70.50
22562;DHT22;11447;50.562;8.504;2022-09-21T14:44:21;18.00;70.90
22562;DHT22;11447;50.562;8.504;2022-09-21T14:49:31;18.00;68.10
22562;DHT22;11447;50.562;8.504;2022-09-21T14:52:02;18.00;69.30
22562;DHT22;11447;50.562;8.504;2022-09-21T15:00:44;18.00;66.60
22562;DHT22;11447;50.562;8.504;2022-09-21T15:06:04;17.90;64.00
22562;DHT22;11447;50.562;8.504;2022-09-21T15:11:46;17.70;64.20
22562;DHT22;11447;50.562;8.504;2022-09-21T15:16:48;17.70;66.90
22562;DHT22;11447;50.562;8.504;2022-09-21T15:24:27;17.80;66.60
22562;DHT22;11447;50.562;8.504;2022-09-21T15:29:32;17.80;67.80
22562;DHT22;11447;50.562;8.504;2022-09-21T15:31:59;17.70;67.50
22562;DHT22;11447;50.562;8.504;2022-09-21T15:34:28;17.70;66.10
22562;DHT22;11447;50.562;8.504;2022-09-21T15:37:11;17.60;67.50
22562;DHT22;11447;50.562;8.504;2022-09-21T15:39:42;17.60;67.10
22562;DHT22;11447;50.562;8.504;2022-09-21T15:44:38;17.60;68.90
22562;DHT22;11447;50.562;8.504;2022-09-21T15:47:09;17.60;69.60
22562;DHT22;11447;50.562;8.504;2022-09-21T15:49:40;17.60;68.70
22562;DHT22;11447;50.562;8.504;2022-09-21T15:52:14;17.60;68.40
22562;DHT22;11447;50.562;8.504;2022-09-21T15:54:44;17.50;69.10
22562;DHT22;11447;50.562;8.504;2022-09-21T15:57:23;17.50;68.80
22562;DHT22;11447;50.562;8.504;2022-09-21T15:59:50;17.50;68.90
22562;DHT22;11447;50.562;8.504;2022-09-21T16:02:19;17.60;69.80
22562;DHT22;11447;50.562;8.504;2022-09-21T16:04:49;17.50;68.50
22562;DHT22;11447;50.562;8.504;2022-09-21T16:07:25;17.50;69.20
22562;DHT22;11447;50.562;8.504;2022-09-21T16:09:52;17.50;68.10
22562;DHT22;11447;50.562;8.504;2022-09-21T16:14:53;17.40;65.90
22562;DHT22;11447;50.562;8.504;2022-09-21T16:17:36;17.40;67.70
22562;DHT22;11447;50.562;8.504;2022-09-21T16:20:04;17.40;65.00
22562;DHT22;11447;50.562;8.504;2022-09-21T16:22:39;17.40;66.20
22562;DHT22;11447;50.562;8.504;2022-09-21T16:27:39;17.30;65.70
22562;DHT22;11447;50.562;8.504;2022-09-21T16:30:36;17.30;65.60
22562;DHT22;11447;50.562;8.504;2022-09-21T16:33:00;17.30;65.60
22562;DHT22;11447;50.562;8.504;2022-09-21T16:35:30;17.20;63.80
22562;DHT22;11447;50.562;8.504;2022-09-21T16:38:03;17.20;65.20
22562;DHT22;11447;50.562;8.504;2022-09-21T16:40:31;17.20;64.60
22562;DHT22;11447;50.562;8.504;2022-09-21T16:42:58;17.10;65.30
22562;DHT22;11447;50.562;8.504;2022-09-21T16:45:27;17.10;63.90
22562;DHT22;11447;50.562;8.504;2022-09-21T16:47:54;17.00;63.50
22562;DHT22;11447;50.562;8.504;2022-09-21T16:50:22;17.00;65.20
22562;DHT22;11447;50.562;8.504;2022-09-21T16:52:52;17.00;65.00
22562;DHT22;11447;50.562;8.504;2022-09-21T16:55:19;17.00;65.50
22562;DHT22;11447;50.562;8.504;2022-09-21T16:57:49;16.90;64.50
22562;DHT22;11447;50.562;8.504;2022-09-21T17:00:18;16.80;64.70
22562;DHT22;11447;50.562;8.504;2022-09-21T17:02:46;16.70;65.70
22562;DHT22;11447;50.562;8.504;2022-09-21T17:05:13;16.70;66.60
22562;DHT22;11447;50.562;8.504;2022-09-21T17:07:56;16.70;67.20
22562;DHT22;11447;50.562;8.504;2022-09-21T17:10:27;16.60;67.60
22562;DHT22;11447;50.562;8.504;2022-09-21T17:12:54;16.50;67.90
22562;DHT22;11447;50.562;8.504;2022-09-21T17:15:21;16.50;69.30
22562;DHT22;11447;50.562;8.504;2022-09-21T17:17:48;16.50;69.80
22562;DHT22;11447;50.562;8.504;2022-09-21T17:20:21;16.50;70.60
22562;DHT22;11447;50.562;8.504;2022-09-21T17:22:49;16.50;71.00
22562;DHT22;11447;50.562;8.504;2022-09-21T17:25:16;16.50;71.50
22562;DHT22;11447;50.562;8.504;2022-09-21T17:27:45;16.50;72.10
22562;DHT22;11447;50.562;8.504;2022-09-21T17:30:11;16.50;72.40
22562;DHT22;11447;50.562;8.504;2022-09-21T17:32:38;16.40;73.30
22562;DHT22;11447;50.562;8.504;2022-09-21T17:35:12;16.40;74.10
22562;DHT22;11447;50.562;8.504;2022-09-21T17:37:42;16.40;74.30
22562;DHT22;11447;50.562;8.504;2022-09-21T17:40:08;16.30;75.00
22562;DHT22;11447;50.562;8.504;2022-09-21T17:42:37;16.20;74.20
22562;DHT22;11447;50.562;8.504;2022-09-21T17:47:38;15.90;75.60
22562;DHT22;11447;50.562;8.504;2022-09-21T17:52:38;15.60;76.80
22562;DHT22;11447;50.562;8.504;2022-09-21T17:55:24;15.50;77.60
22562;DHT22;11447;50.562;8.504;2022-09-21T17:57:52;15.40;78.00
22562;DHT22;11447;50.562;8.504;2022-09-21T18:00:42;15.40;78.40
22562;DHT22;11447;50.562;8.504;2022-09-21T18:03:15;15.30;78.70
22562;DHT22;11447;50.562;8.504;2022-09-21T18:05:43;15.20;79.60
22562;DHT22;11447;50.562;8.504;2022-09-21T18:08:09;15.10;80.30
22562;DHT22;11447;50.562;8.504;2022-09-21T18:10:36;15.00;81.00
22562;DHT22;11447;50.562;8.504;2022-09-21T18:15:55;14.90;82.00
22562;DHT22;11447;50.562;8.504;2022-09-21T18:18:43;14.80;82.70
22562;DHT22;11447;50.562;8.504;2022-09-21T18:21:13;14.70;83.60
22562;DHT22;11447;50.562;8.504;2022-09-21T18:23:51;14.70;84.50
22562;DHT22;11447;50.562;8.504;2022-09-21T18:26:22;14.60;84.50
22562;DHT22;11447;50.562;8.504;2022-09-21T18:28:52;14.60;85.10
22562;DHT22;11447;50.562;8.504;2022-09-21T18:34:01;14.40;85.50
22562;DHT22;11447;50.562;8.504;2022-09-21T18:42:01;14.30;86.10
22562;DHT22;11447;50.562;8.504;2022-09-21T18:44:36;14.40;86.30
22562;DHT22;11447;50.562;8.504;2022-09-21T18:47:12;14.30;86.60
22562;DHT22;11447;50.562;8.504;2022-09-21T18:57:53;14.30;87.70
22562;DHT22;11447;50.562;8.504;2022-09-21T19:00:19;14.30;88.30
22562;DHT22;11447;50.562;8.504;2022-09-21T19:02:46;14.30;89.00
22562;DHT22;11447;50.562;8.504;2022-09-21T19:05:33;14.30;89.40
22562;DHT22;11447;50.562;8.504;2022-09-21T19:10:34;14.20;89.40
22562;DHT22;11447;50.562;8.504;2022-09-21T19:18:45;14.00;90.10
22562;DHT22;11447;50.562;8.504;2022-09-21T19:24:03;13.90;91.40
22562;DHT22;11447;50.562;8.504;2022-09-21T19:26:41;13.90;91.90
22562;DHT22;11447;50.562;8.504;2022-09-21T19:31:44;13.80;92.00
22562;DHT22;11447;50.562;8.504;2022-09-21T19:34:13;13.70;91.70
22562;DHT22;11447;50.562;8.504;2022-09-21T19:36:42;13.70;92.00